Time;durP1;ratioP1;P1;durP2;ratioP2;P2;SDS_P1;SDS_P2;PMS_P1;PMS_P2;Temp;Humidity;BMP_temperature;BMP_pressure;BME280_temperature;BME280_humidity;BME280_pressure;Samples;Min_cycle;Max_cycle;Signal;HPM_P1;HPM_P2
2022/12/17 13:06:53;;;;;;;18.40;10.30;;;20.20;56.10;;;;;;4982399;28;20117;-66
2022/12/17 13:09:48;;;;;;;25.20;10.93;;;20.10;56.30;;;;;;4982322;28;20027;-66
2022/12/17 13:12:25;;;;;;;23.27;10.77;;;20.00;56.90;;;;;;4982890;28;20029;-69
2022/12/17 13:15:05;;;;;;;24.38;9.68;;;19.90;57.00;;;;;;4982446;28;20031;-72
2022/12/17 13:17:36;;;;;;;20.15;9.65;;;19.80;56.90;;;;;;4982600;28;20117;-71
2022/12/17 13:20:22;;;;;;;21.73;10.77;;;19.70;57.20;;;;;;4982382;28;20224;-73
2022/12/17 13:22:51;;;;;;;25.02;11.32;;;19.60;57.70;;;;;;4982126;28;20334;-73
2022/12/17 13:25:22;;;;;;;25.90;12.77;;;19.50;58.20;;;;;;4982251;28;20113;-64
2022/12/17 13:27:49;;;;;;;23.95;10.75;;;19.50;57.90;;;;;;4982256;28;20065;-64
2022/12/17 13:30:21;;;;;;;22.52;10.68;;;19.40;58.00;;;;;;4964976;28;20093;-63
2022/12/17 13:33:12;;;;;;;18.95;9.43;;;19.50;58.20;;;;;;4982436;28;20096;-63
2022/12/17 13:36:03;;;;;;;18.27;10.07;;;19.50;58.80;;;;;;4982200;28;20101;-63
2022/12/17 13:38:35;;;;;;;26.55;10.93;;;19.50;57.60;;;;;;4982200;28;20026;-63
2022/12/17 13:41:11;;;;;;;21.83;11.23;;;19.50;57.90;;;;;;4982142;28;20026;-63
2022/12/17 13:43:57;;;;;;;25.10;11.05;;;19.50;57.80;;;;;;4982186;28;20023;-63
2022/12/17 13:46:26;;;;;;;22.60;10.50;;;19.60;57.70;;;;;;4982126;28;20089;-64
2022/12/17 13:49:00;;;;;;;22.13;11.10;;;19.70;57.70;;;;;;4980802;28;20031;-63
2022/12/17 13:51:29;;;;;;;29.88;11.40;;;19.70;57.50;;;;;;4981959;28;20088;-62
2022/12/17 13:54:00;;;;;;;21.77;10.52;;;19.70;57.40;;;;;;4964626;28;20022;-67
2022/12/17 13:56:34;;;;;;;39.47;17.48;;;19.70;57.60;;;;;;4982347;28;20098;-63
2022/12/17 13:59:03;;;;;;;20.42;11.25;;;19.80;52.50;;;;;;4981567;28;20094;-63
2022/12/17 14:01:30;;;;;;;29.63;12.02;;;19.80;57.20;;;;;;4981266;28;20372;-63
2022/12/17 14:03:59;;;;;;;18.85;9.88;;;19.90;56.90;;;;;;4981778;28;20222;-63
2022/12/17 14:06:43;;;;;;;18.65;10.75;;;19.90;57.00;;;;;;4979975;28;20074;-63
2022/12/17 14:09:17;;;;;;;22.77;10.93;;;20.00;57.00;;;;;;4981557;28;20031;-63
2022/12/17 14:14:30;;;;;;;21.80;10.98;;;20.00;57.20;;;;;;4980952;28;20014;-63
2022/12/17 14:16:56;;;;;;;20.85;11.07;;;19.90;56.90;;;;;;4981816;28;20514;-63
2022/12/17 14:19:23;;;;;;;23.05;9.48;;;19.90;56.40;;;;;;4981753;28;20046;-63
2022/12/17 14:21:50;;;;;;;22.33;8.95;;;19.90;57.40;;;;;;4981876;28;20031;-63
2022/12/17 14:24:22;;;;;;;23.10;8.55;;;19.90;57.50;;;;;;4985423;28;20041;-63
2022/12/17 14:26:52;;;;;;;24.83;9.73;;;20.00;57.30;;;;;;4985459;28;20338;-63
2022/12/17 14:29:27;;;;;;;18.52;9.27;;;19.90;56.90;;;;;;4967936;28;20035;-63
2022/12/17 14:31:56;;;;;;;15.10;8.57;;;20.00;58.00;;;;;;4985299;28;20537;-64
2022/12/17 14:34:22;;;;;;;22.23;11.38;;;20.00;58.00;;;;;;4985219;28;20042;-63
2022/12/17 14:37:02;;;;;;;19.88;9.68;;;20.00;57.20;;;;;;4985159;28;20102;-63
2022/12/17 14:39:30;;;;;;;16.95;10.27;;;19.90;57.40;;;;;;4984999;28;20093;-63
2022/12/17 14:42:28;;;;;;;18.55;9.88;;;19.90;57.20;;;;;;4985103;28;20082;-64
2022/12/17 14:44:55;;;;;;;20.15;10.75;;;19.90;57.50;;;;;;4985066;28;20037;-63
2022/12/17 14:47:31;;;;;;;21.17;9.97;;;19.80;57.30;;;;;;4984990;28;20018;-64
2022/12/17 14:50:01;;;;;;;21.15;9.32;;;19.90;57.20;;;;;;4984912;28;20026;-63
2022/12/17 14:52:38;;;;;;;16.77;9.32;;;19.90;57.40;;;;;;4984891;28;20034;-62
2022/12/17 14:55:23;;;;;;;19.90;10.52;;;19.90;56.70;;;;;;4984859;28;20085;-63
2022/12/17 14:57:51;;;;;;;19.80;10.68;;;20.00;56.20;;;;;;4984801;28;20065;-63
2022/12/17 15:00:17;;;;;;;20.23;10.88;;;19.90;57.20;;;;;;4984732;28;20038;-63
2022/12/17 15:02:45;;;;;;;18.70;9.95;;;19.90;57.00;;;;;;4984782;28;20070;-63
2022/12/17 15:05:15;;;;;;;17.35;9.93;;;19.90;56.90;;;;;;4984778;28;20025;-63
2022/12/17 15:07:41;;;;;;;17.65;9.80;;;19.90;56.90;;;;;;4984453;28;20047;-63
2022/12/17 15:10:12;;;;;;;18.92;10.43;;;19.90;56.60;;;;;;4984533;28;20030;-63
2022/12/17 15:12:41;;;;;;;19.65;9.90;;;20.00;56.60;;;;;;4984522;28;20031;-64
2022/12/17 15:15:10;;;;;;;14.43;9.05;;;19.90;57.10;;;;;;4984478;28;20023;-63
2022/12/17 15:17:36;;;;;;;15.82;8.95;;;19.90;57.50;;;;;;4984481;28;20381;-63
2022/12/17 15:20:02;;;;;;;18.48;10.00;;;19.90;57.70;;;;;;4984332;28;20030;-63
2022/12/17 15:22:28;;;;;;;20.65;9.93;;;19.80;56.80;;;;;;4984281;28;20405;-63
2022/12/17 15:24:54;;;;;;;15.30;9.63;;;19.70;57.80;;;;;;4984273;28;20035;-64
2022/12/17 15:27:20;;;;;;;17.35;9.85;;;19.60;57.10;;;;;;4984268;28;20023;-64
2022/12/17 15:29:46;;;;;;;19.50;9.40;;;19.60;57.70;;;;;;4966840;28;20058;-64
2022/12/17 15:32:19;;;;;;;15.23;9.50;;;19.50;57.90;;;;;;4984211;28;20044;-63
2022/12/17 15:34:45;;;;;;;15.35;8.38;;;19.50;57.60;;;;;;4983881;28;20031;-63
2022/12/17 15:37:12;;;;;;;15.02;9.15;;;19.40;58.10;;;;;;4984118;28;20029;-63
2022/12/17 15:39:37;;;;;;;20.45;9.63;;;19.30;58.30;;;;;;4983994;28;20022;-64
2022/12/17 15:44:48;;;;;;;18.65;9.13;;;19.30;58.00;;;;;;4984064;28;20018;-64
2022/12/17 15:47:13;;;;;;;19.67;10.10;;;19.40;58.20;;;;;;4984004;28;20030;-63
2022/12/17 15:49:39;;;;;;;17.80;9.57;;;19.40;57.90;;;;;;4983929;28;20085;-63
2022/12/17 15:52:05;;;;;;;18.83;10.50;;;19.50;57.10;;;;;;4983896;28;20046;-62
2022/12/17 15:54:31;;;;;;;17.40;9.18;;;19.50;57.10;;;;;;4983811;28;20041;-62
2022/12/17 15:56:57;;;;;;;12.02;8.20;;;19.60;57.50;;;;;;4983710;28;20054;-61
2022/12/17 15:59:23;;;;;;;16.25;9.57;;;19.60;57.00;;;;;;4983507;28;20034;-64
2022/12/17 16:01:49;;;;;;;17.75;8.95;;;19.60;56.90;;;;;;4983621;28;20026;-62
2022/12/17 16:04:15;;;;;;;19.52;8.73;;;19.60;57.40;;;;;;4983608;28;20030;-62
2022/12/17 16:06:41;;;;;;;19.02;9.00;;;19.60;57.80;;;;;;4983408;28;20117;-62
2022/12/17 16:09:07;;;;;;;17.02;8.95;;;19.70;58.10;;;;;;4983708;28;20065;-63
2022/12/17 16:11:33;;;;;;;15.32;9.30;;;19.80;57.80;;;;;;4983342;28;20022;-61
2022/12/17 16:13:58;;;;;;;13.57;8.82;;;19.80;57.60;;;;;;4983361;28;20045;-62
2022/12/17 16:16:24;;;;;;;15.15;9.13;;;19.90;57.30;;;;;;4983306;28;20274;-62
2022/12/17 16:18:50;;;;;;;17.75;8.55;;;19.90;57.80;;;;;;4983292;28;20214;-61
2022/12/17 16:21:16;;;;;;;17.30;8.68;;;19.80;57.10;;;;;;4983207;28;20054;-62
2022/12/17 16:23:42;;;;;;;16.75;9.38;;;19.80;57.10;;;;;;4983142;28;20258;-62
2022/12/17 16:26:09;;;;;;;12.77;9.02;;;19.80;56.90;;;;;;4983236;28;20019;-61
2022/12/17 16:28:36;;;;;;;15.07;8.77;;;19.80;56.80;;;;;;4983180;28;20026;-62
2022/12/17 16:31:05;;;;;;;16.88;9.02;;;19.80;56.90;;;;;;4983077;28;20030;-62
2022/12/17 16:33:32;;;;;;;18.27;9.23;;;19.80;56.80;;;;;;4983038;28;20030;-62
2022/12/17 16:35:59;;;;;;;15.27;8.67;;;19.80;56.80;;;;;;4983142;28;20022;-62
2022/12/17 16:38:24;;;;;;;15.82;9.82;;;19.80;56.90;;;;;;4983030;28;20030;-62
2022/12/17 16:40:54;;;;;;;13.65;8.82;;;19.80;56.70;;;;;;4982861;28;20345;-62
2022/12/17 16:43:20;;;;;;;15.95;9.45;;;19.70;57.10;;;;;;4982876;28;20019;-61
2022/12/17 16:45:48;;;;;;;11.90;8.48;;;19.70;57.10;;;;;;4982198;28;20030;-62
2022/12/17 16:48:16;;;;;;;14.57;9.18;;;19.70;56.40;;;;;;4982820;28;20217;-63
2022/12/17 16:50:42;;;;;;;13.60;8.45;;;19.70;56.90;;;;;;4982749;28;20058;-63
2022/12/17 16:53:08;;;;;;;16.17;8.55;;;19.70;56.70;;;;;;4982723;28;20064;-62
2022/12/17 16:55:40;;;;;;;14.65;8.95;;;19.70;57.00;;;;;;4982717;28;20031;-62
2022/12/17 16:58:05;;;;;;;16.27;8.68;;;19.70;57.10;;;;;;4982689;28;20030;-62
2022/12/17 17:00:32;;;;;;;15.95;9.10;;;19.70;57.20;;;;;;4982606;28;20019;-62
2022/12/17 17:02:57;;;;;;;15.85;9.20;;;19.70;57.10;;;;;;4982617;28;20042;-62
2022/12/17 17:05:23;;;;;;;14.90;9.00;;;19.80;56.80;;;;;;4982619;28;20018;-63
2022/12/17 17:07:49;;;;;;;14.77;8.40;;;19.70;56.90;;;;;;4982354;28;20098;-63
2022/12/17 17:10:15;;;;;;;13.68;9.32;;;19.80;57.20;;;;;;4982481;28;20142;-62
2022/12/17 17:12:41;;;;;;;12.77;8.68;;;19.80;56.60;;;;;;4982529;28;20035;-62
2022/12/17 17:15:07;;;;;;;15.25;8.68;;;19.80;57.10;;;;;;4982520;28;20038;-61
2022/12/17 17:17:33;;;;;;;14.65;9.23;;;19.80;56.40;;;;;;4982406;28;20085;-63
2022/12/17 17:19:58;;;;;;;18.52;8.88;;;19.70;56.20;;;;;;4982361;28;20028;-63
2022/12/17 17:22:24;;;;;;;14.68;8.75;;;19.70;56.90;;;;;;4982405;28;20022;-63
2022/12/17 17:24:50;;;;;;;16.10;9.02;;;19.60;56.50;;;;;;4982344;28;20026;-62
2022/12/17 17:27:16;;;;;;;11.07;8.13;;;19.60;57.00;;;;;;4982351;28;20348;-61
2022/12/17 17:29:41;;;;;;;13.05;9.15;;;19.50;57.20;;;;;;4982210;28;20026;-62
2022/12/17 17:32:07;;;;;;;14.65;9.70;;;19.50;57.70;;;;;;4982187;28;20318;-61
2022/12/17 17:34:35;;;;;;;15.00;9.50;;;19.40;57.40;;;;;;4982229;28;20424;-61
2022/12/17 17:37:01;;;;;;;13.13;8.77;;;19.40;57.40;;;;;;4982132;28;20035;-63
2022/12/17 17:39:30;;;;;;;15.15;9.88;;;19.30;57.20;;;;;;4982033;28;20026;-62
2022/12/17 17:41:56;;;;;;;15.60;9.63;;;19.30;57.60;;;;;;4982156;28;20084;-63
2022/12/17 17:44:22;;;;;;;15.30;10.25;;;19.20;57.60;;;;;;4982125;28;20341;-61
2022/12/17 17:46:47;;;;;;;17.30;9.60;;;19.20;57.30;;;;;;4982091;28;20421;-62
2022/12/17 17:49:13;;;;;;;13.52;8.95;;;19.20;57.80;;;;;;4982142;28;20275;-62
2022/12/17 17:51:42;;;;;;;13.55;8.70;;;19.20;57.80;;;;;;4982074;28;20053;-61
2022/12/17 17:54:08;;;;;;;13.77;8.73;;;19.20;57.40;;;;;;4982007;28;20021;-61
2022/12/17 17:56:36;;;;;;;17.00;8.77;;;19.30;57.50;;;;;;4983122;28;20356;-61
2022/12/17 17:59:05;;;;;;;14.65;8.98;;;19.30;57.30;;;;;;4985778;28;20033;-62
2022/12/17 18:01:33;;;;;;;16.55;8.63;;;19.40;57.50;;;;;;4985909;28;20330;-62
2022/12/17 18:04:03;;;;;;;13.85;9.20;;;19.50;57.60;;;;;;4985873;28;20078;-62
2022/12/17 18:06:29;;;;;;;15.25;9.20;;;19.50;57.30;;;;;;4985795;28;20046;-63
2022/12/17 18:08:57;;;;;;;17.75;9.18;;;19.50;57.10;;;;;;4985815;28;20018;-62
2022/12/17 18:11:23;;;;;;;17.10;9.45;;;19.50;56.90;;;;;;4985686;28;20046;-63
2022/12/17 18:13:55;;;;;;;10.77;7.50;;;19.50;57.40;;;;;;4968217;28;20102;-62
2022/12/17 18:16:30;;;;;;;14.98;8.93;;;19.60;57.90;;;;;;4985630;28;20022;-62
2022/12/17 18:19:04;;;;;;;12.65;7.75;;;19.60;56.90;;;;;;4985506;28;20033;-62
2022/12/17 18:21:30;;;;;;;12.32;8.48;;;19.60;57.80;;;;;;4985488;28;20158;-62
2022/12/17 18:24:02;;;;;;;15.32;8.45;;;19.60;57.40;;;;;;4985381;28;20242;-61
2022/12/17 18:26:30;;;;;;;13.52;8.52;;;19.70;57.10;;;;;;4985421;28;20022;-61
2022/12/17 18:28:57;;;;;;;16.33;9.70;;;19.60;56.90;;;;;;4985415;28;20019;-62
2022/12/17 18:31:25;;;;;;;15.52;9.40;;;19.60;56.70;;;;;;4985259;28;20030;-62
2022/12/17 18:33:59;;;;;;;13.95;7.55;;;19.70;56.80;;;;;;4985300;28;20030;-62
2022/12/17 18:36:29;;;;;;;12.32;7.93;;;19.70;56.40;;;;;;4985313;28;20038;-62
2022/12/17 18:39:05;;;;;;;15.80;9.68;;;19.80;56.70;;;;;;4985279;28;20037;-61
2022/12/17 18:44:16;;;;;;;15.52;8.50;;;19.90;56.40;;;;;;4985157;28;20030;-62
2022/12/17 18:46:42;;;;;;;12.38;8.48;;;20.00;56.70;;;;;;4985063;28;20026;-62
2022/12/17 18:49:11;;;;;;;13.85;9.40;;;19.90;56.90;;;;;;4985041;28;20074;-61
2022/12/17 18:51:38;;;;;;;13.35;7.53;;;19.90;56.40;;;;;;4984935;28;20361;-62
2022/12/17 18:54:06;;;;;;;13.05;8.25;;;19.90;56.70;;;;;;4984885;28;20035;-62
2022/12/17 18:56:33;;;;;;;13.75;9.55;;;19.90;56.30;;;;;;4984846;28;20061;-62
2022/12/17 18:58:59;;;;;;;13.23;8.57;;;19.80;56.30;;;;;;4967483;28;20257;-62
2022/12/17 19:01:28;;;;;;;16.80;9.35;;;19.90;56.40;;;;;;4984727;28;20034;-62
2022/12/17 19:03:53;;;;;;;13.05;8.95;;;19.90;56.80;;;;;;4984662;28;20031;-62
2022/12/17 19:06:21;;;;;;;13.45;9.40;;;19.90;57.30;;;;;;4984526;28;20054;-62
2022/12/17 19:08:48;;;;;;;13.63;8.50;;;19.80;56.20;;;;;;4984015;28;20019;-63
2022/12/17 19:11:16;;;;;;;14.75;8.18;;;19.80;56.30;;;;;;4984580;28;20023;-62
2022/12/17 19:13:42;;;;;;;;;;;19.80;57.00;;;;;;4967625;28;20015;-63
2022/12/17 19:16:28;;;;;;;13.73;9.35;;;19.90;56.60;;;;;;4984724;28;19917;-64
2022/12/17 19:18:56;;;;;;;13.13;8.88;;;19.80;56.00;;;;;;4984524;28;20031;-62
2022/12/17 19:21:23;;;;;;;14.82;8.15;;;19.80;55.90;;;;;;4976608;28;20023;-62
2022/12/17 19:23:49;;;;;;;13.52;7.65;;;19.80;57.50;;;;;;4984396;28;20322;-63
2022/12/17 19:26:17;;;;;;;13.20;8.32;;;19.80;57.10;;;;;;4984372;28;20031;-62
2022/12/17 19:28:48;;;;;;;12.30;8.48;;;19.90;57.00;;;;;;4984389;28;20046;-62
2022/12/17 19:31:15;;;;;;;14.40;8.43;;;19.90;57.00;;;;;;4984303;28;20034;-62
2022/12/17 19:33:41;;;;;;;13.75;9.13;;;19.90;56.90;;;;;;4984199;28;20031;-62
2022/12/17 19:36:13;;;;;;;14.63;9.35;;;19.90;56.30;;;;;;4984072;28;20015;-64
2022/12/17 19:38:39;;;;;;;12.18;7.72;;;19.90;56.50;;;;;;4984185;28;20037;-63
2022/12/17 19:41:10;;;;;;;11.95;8.23;;;20.00;56.70;;;;;;4983995;28;20030;-62
2022/12/17 19:43:36;;;;;;;13.35;7.78;;;20.00;56.90;;;;;;4984052;28;20034;-63
2022/12/17 19:46:07;;;;;;;12.95;8.40;;;20.10;56.60;;;;;;4983974;28;20062;-62
2022/12/17 19:48:35;;;;;;;12.63;7.97;;;20.00;55.80;;;;;;4983935;28;20026;-64
2022/12/17 19:51:03;;;;;;;15.00;9.30;;;20.00;56.10;;;;;;4983893;28;20031;-64
2022/12/17 19:53:29;;;;;;;17.13;9.10;;;20.00;56.00;;;;;;4983807;28;20252;-62
2022/12/17 19:56:06;;;;;;;13.95;8.35;;;20.00;55.50;;;;;;4983818;28;20025;-62
2022/12/17 19:58:32;;;;;;;13.18;9.43;;;20.00;56.70;;;;;;4983719;28;20041;-61
2022/12/17 20:01:05;;;;;;;12.45;9.13;;;20.00;55.70;;;;;;4983575;28;20207;-65
2022/12/17 20:03:31;;;;;;;13.00;8.00;;;20.00;56.00;;;;;;4983743;28;20034;-62
2022/12/17 20:05:57;;;;;;;15.23;9.38;;;20.00;55.90;;;;;;4983643;28;20031;-61
2022/12/17 20:08:23;;;;;;;15.82;8.20;;;20.00;55.70;;;;;;4983441;28;20357;-62
2022/12/17 20:10:49;;;;;;;16.20;9.32;;;19.90;56.00;;;;;;4983522;28;20034;-61
2022/12/17 20:13:15;;;;;;;14.30;8.75;;;19.90;56.00;;;;;;4983521;28;20089;-61
2022/12/17 20:15:41;;;;;;;12.27;8.20;;;19.90;57.00;;;;;;4983519;28;20034;-63
2022/12/17 20:18:06;;;;;;;13.35;9.35;;;20.00;56.90;;;;;;4983334;28;20217;-61
2022/12/17 20:20:32;;;;;;;13.38;8.27;;;19.90;56.90;;;;;;4982392;28;20045;-62
2022/12/17 20:23:01;;;;;;;14.48;8.82;;;19.90;56.60;;;;;;4983311;28;20082;-59
2022/12/17 20:25:27;;;;;;;11.55;8.50;;;19.90;56.60;;;;;;4983175;28;20026;-63
2022/12/17 20:27:52;;;;;;;14.18;9.05;;;19.90;56.50;;;;;;4983098;28;20337;-63
2022/12/17 20:30:18;;;;;;;13.18;8.43;;;19.90;56.00;;;;;;4983121;28;20215;-63
2022/12/17 20:32:44;;;;;;;12.30;8.60;;;19.80;56.60;;;;;;4983061;28;20094;-64
2022/12/17 20:35:10;;;;;;;12.85;8.40;;;19.80;56.30;;;;;;4982978;28;20042;-62
2022/12/17 20:37:36;;;;;;;13.90;9.07;;;19.80;56.20;;;;;;4982887;28;20046;-62
2022/12/17 20:40:01;;;;;;;12.75;8.88;;;19.80;56.60;;;;;;4982923;28;20375;-62
2022/12/17 20:42:27;;;;;;;13.50;8.88;;;19.90;55.80;;;;;;4982944;28;20027;-62
2022/12/17 20:44:53;;;;;;;14.02;9.43;;;19.90;55.80;;;;;;4982876;28;20023;-62
2022/12/17 20:47:19;;;;;;;13.88;8.57;;;19.90;55.60;;;;;;4982889;28;20025;-63
2022/12/17 20:49:44;;;;;;;12.32;8.35;;;19.90;55.90;;;;;;4982767;28;20026;-62
2022/12/17 20:52:10;;;;;;;14.05;9.27;;;19.90;55.70;;;;;;4982773;28;20034;-62
2022/12/17 20:54:36;;;;;;;15.38;9.05;;;19.90;55.60;;;;;;4982697;28;20049;-64
2022/12/17 20:57:02;;;;;;;12.55;8.85;;;19.90;55.70;;;;;;4982732;28;20042;-62
2022/12/17 20:59:28;;;;;;;14.05;8.77;;;20.00;55.90;;;;;;4982575;28;20031;-61
2022/12/17 21:01:53;;;;;;;12.55;8.20;;;20.00;55.40;;;;;;4982630;28;20206;-62
2022/12/17 21:04:19;;;;;;;13.23;8.52;;;20.00;55.70;;;;;;4982623;28;20011;-61
2022/12/17 21:06:46;;;;;;;12.82;8.07;;;20.00;55.50;;;;;;4975367;28;20066;-64
2022/12/17 21:09:14;;;;;;;11.85;8.27;;;19.90;56.50;;;;;;4981449;28;20022;-63
2022/12/17 21:11:40;;;;;;;12.80;8.73;;;19.80;56.40;;;;;;4982432;28;20066;-62
2022/12/17 21:14:09;;;;;;;12.63;8.48;;;19.70;56.10;;;;;;4982485;28;20033;-61
2022/12/17 21:16:35;;;;;;;;;;;19.60;56.30;;;;;;4982928;28;20026;-61
2022/12/17 21:19:02;;;;;;;10.13;7.85;;;19.50;57.40;;;;;;4982373;28;20232;-62
2022/12/17 21:21:30;;;;;;;12.85;8.98;;;19.50;57.20;;;;;;4982315;28;20034;-63
2022/12/17 21:23:57;;;;;;;13.85;8.85;;;19.40;56.90;;;;;;4982463;28;20349;-62
2022/12/17 21:26:34;;;;;;;13.05;9.10;;;19.30;56.80;;;;;;4982336;28;20237;-62
2022/12/17 21:29:02;;;;;;;17.27;9.98;;;19.30;57.10;;;;;;4982325;28;20019;-62
2022/12/17 21:31:51;;;;;;;13.10;8.70;;;19.30;56.80;;;;;;4981981;28;20030;-61
2022/12/17 21:34:24;;;;;;;16.05;10.02;;;19.30;56.30;;;;;;4982298;28;20031;-62
2022/12/17 21:36:50;;;;;;;12.77;8.13;;;19.40;56.40;;;;;;4982186;28;20093;-62
2022/12/17 21:39:17;;;;;;;12.07;9.15;;;19.50;56.40;;;;;;4982165;28;20042;-62
2022/12/17 21:43:00;;;;;;;13.18;8.45;;;19.50;56.30;;;;;;4982212;28;20025;-62
2022/12/17 21:44:33;;;;;;;14.18;9.93;;;19.60;56.50;;;;;;4982017;28;20270;-62
2022/12/17 21:46:59;;;;;;;13.25;9.25;;;19.60;55.70;;;;;;4982142;28;20033;-62
2022/12/17 21:49:25;;;;;;;11.70;7.80;;;19.60;55.90;;;;;;4981989;28;20217;-62
2022/12/17 21:51:51;;;;;;;14.70;9.30;;;19.60;56.00;;;;;;4982173;28;20042;-62
2022/12/17 21:54:17;;;;;;;14.15;9.38;;;19.60;55.80;;;;;;4982155;28;20045;-62
2022/12/17 21:56:42;;;;;;;14.63;9.57;;;19.70;55.80;;;;;;4982105;28;20031;-62
2022/12/17 21:59:10;;;;;;;13.40;9.48;;;19.70;55.70;;;;;;4981874;28;20033;-61
2022/12/17 22:01:36;;;;;;;11.85;8.00;;;19.70;55.40;;;;;;4982010;28;20303;-62
2022/12/17 22:04:03;;;;;;;14.00;8.85;;;19.80;55.60;;;;;;4981965;28;20034;-62
2022/12/17 22:06:32;;;;;;;12.35;8.63;;;19.80;55.60;;;;;;4981798;28;20051;-62
2022/12/17 22:08:59;;;;;;;13.80;8.88;;;19.90;55.70;;;;;;4981861;28;20027;-63
2022/12/17 22:11:26;;;;;;;13.90;8.55;;;19.80;55.50;;;;;;4982030;28;20034;-62
2022/12/17 22:14:01;;;;;;;14.23;8.95;;;19.80;55.30;;;;;;4981872;28;20014;-62
2022/12/17 22:16:32;;;;;;;12.57;8.77;;;19.80;55.70;;;;;;4982122;28;20101;-63
2022/12/17 22:19:00;;;;;;;11.82;8.07;;;19.70;56.10;;;;;;4981875;28;20341;-62
2022/12/17 22:21:26;;;;;;;13.03;8.27;;;19.80;56.10;;;;;;4981740;28;20030;-63
2022/12/17 22:23:52;;;;;;;11.60;7.80;;;19.80;56.50;;;;;;4981817;28;20030;-62
2022/12/17 22:26:19;;;;;;;14.40;8.90;;;19.80;56.20;;;;;;4981823;28;20338;-62
2022/12/17 22:28:48;;;;;;;13.38;8.13;;;19.80;55.70;;;;;;4981795;28;20077;-63
2022/12/17 22:34:05;;;;;;;12.60;8.60;;;19.70;55.90;;;;;;4981785;28;20057;-61
2022/12/17 22:36:32;;;;;;;14.15;7.75;;;19.70;55.80;;;;;;4981704;28;20024;-61
2022/12/17 22:39:05;;;;;;;13.18;8.45;;;19.70;56.60;;;;;;4981651;28;20261;-62
2022/12/17 22:44:15;;;;;;;14.85;9.18;;;19.80;55.70;;;;;;4983553;28;20030;-62
2022/12/17 22:46:41;;;;;;;13.23;8.43;;;19.80;55.70;;;;;;4984985;28;20015;-62
2022/12/17 22:49:07;;;;;;;15.02;9.18;;;19.90;55.30;;;;;;4984939;28;20019;-62
2022/12/17 22:51:34;;;;;;;10.52;7.80;;;19.80;55.10;;;;;;4984973;28;20033;-62
2022/12/17 22:54:02;;;;;;;14.77;9.15;;;19.80;55.30;;;;;;4984908;28;20029;-62
2022/12/17 22:56:28;;;;;;;14.77;9.45;;;19.80;55.50;;;;;;4984897;28;20023;-62
2022/12/17 22:58:53;;;;;;;16.58;10.07;;;19.80;55.50;;;;;;4984843;28;20089;-61
2022/12/17 23:01:19;;;;;;;13.80;8.50;;;19.90;55.20;;;;;;4984783;28;20033;-62
2022/12/17 23:03:45;;;;;;;14.25;9.13;;;19.90;55.10;;;;;;4984749;28;20046;-61
2022/12/17 23:06:14;;;;;;;12.82;8.45;;;19.90;54.80;;;;;;4984539;28;20030;-62
2022/12/17 23:08:41;;;;;;;13.15;8.52;;;20.00;54.90;;;;;;4984781;28;20039;-62
2022/12/17 23:11:13;;;;;;;13.45;8.75;;;20.00;55.30;;;;;;4984655;28;20030;-63
2022/12/17 23:13:39;;;;;;;11.15;7.40;;;19.90;54.70;;;;;;4984578;28;20030;-61
2022/12/17 23:16:06;;;;;;;14.30;8.75;;;19.90;55.50;;;;;;4984580;28;20022;-62
2022/12/17 23:18:32;;;;;;;14.00;8.10;;;19.90;55.40;;;;;;4984489;28;20035;-62
2022/12/17 23:21:12;;;;;;;15.18;8.95;;;19.90;55.30;;;;;;4984382;28;20069;-62
2022/12/17 23:23:39;;;;;;;12.38;9.23;;;19.90;55.20;;;;;;4984407;28;20018;-62
2022/12/17 23:26:19;;;;;;;12.60;9.10;;;19.90;55.00;;;;;;4984418;28;20199;-62
2022/12/17 23:28:45;;;;;;;12.73;8.00;;;19.90;55.20;;;;;;4967041;28;20022;-62
2022/12/17 23:31:17;;;;;;;12.32;8.13;;;19.80;55.60;;;;;;4984258;28;20062;-62
2022/12/17 23:33:44;;;;;;;12.65;7.57;;;19.80;55.70;;;;;;4984285;28;20322;-62
2022/12/17 23:36:18;;;;;;;12.95;8.05;;;19.80;56.00;;;;;;4984297;28;20027;-62
2022/12/17 23:38:45;;;;;;;12.38;8.57;;;19.80;55.20;;;;;;4984205;28;20054;-62
2022/12/17 23:41:18;;;;;;;13.02;8.60;;;19.80;55.50;;;;;;4983996;28;20338;-64
2022/12/17 23:43:44;;;;;;;10.65;7.88;;;19.80;55.70;;;;;;4984062;28;20034;-64
2022/12/17 23:46:10;;;;;;;13.18;8.80;;;19.80;55.60;;;;;;4984012;28;20046;-64
2022/12/17 23:48:39;;;;;;;12.35;7.93;;;19.80;55.10;;;;;;4983999;28;20033;-65
2022/12/17 23:51:05;;;;;;;;;;;19.80;55.40;;;;;;4984367;28;20030;-63
2022/12/17 23:53:32;;;;;;;12.75;8.48;;;19.70;55.20;;;;;;4983848;28;20070;-64
2022/12/17 23:56:09;;;;;;;15.32;9.27;;;19.70;55.60;;;;;;4983740;28;20034;-64
2022/12/17 23:58:36;;;;;;;12.07;8.55;;;19.80;55.30;;;;;;4983755;28;20035;-61
